sensor_id;sensor_type;location;lat;lon;timestamp;P1;durP1;ratioP1;P2;durP2;ratioP2
24729;SDS011;12832;52.392;13.066;2023-05-10T00:01:40;1.27;;;1.17;;
24729;SDS011;12832;52.392;13.066;2023-05-10T00:04:06;1.02;;;0.95;;
24729;SDS011;12832;52.392;13.066;2023-05-10T00:06:32;1.23;;;1.00;;
24729;SDS011;12832;52.392;13.066;2023-05-10T00:08:58;0.93;;;0.90;;
24729;SDS011;12832;52.392;13.066;2023-05-10T00:11:24;1.20;;;1.10;;
24729;SDS011;12832;52.392;13.066;2023-05-10T00:13:50;2.25;;;1.10;;
24729;SDS011;12832;52.392;13.066;2023-05-10T00:16:17;1.15;;;1.10;;
24729;SDS011;12832;52.392;13.066;2023-05-10T00:18:43;1.27;;;1.00;;
24729;SDS011;12832;52.392;13.066;2023-05-10T00:21:09;0.80;;;0.80;;
24729;SDS011;12832;52.392;13.066;2023-05-10T00:23:35;1.15;;;1.05;;
24729;SDS011;12832;52.392;13.066;2023-05-10T00:26:01;1.13;;;1.00;;
24729;SDS011;12832;52.392;13.066;2023-05-10T00:28:28;1.63;;;1.52;;
24729;SDS011;12832;52.392;13.066;2023-05-10T00:30:54;1.10;;;1.00;;
24729;SDS011;12832;52.392;13.066;2023-05-10T00:33:21;1.35;;;1.25;;
24729;SDS011;12832;52.392;13.066;2023-05-10T00:35:47;1.58;;;1.30;;
24729;SDS011;12832;52.392;13.066;2023-05-10T00:38:13;2.03;;;1.10;;
24729;SDS011;12832;52.392;13.066;2023-05-10T00:40:39;1.05;;;1.02;;
24729;SDS011;12832;52.392;13.066;2023-05-10T00:43:06;1.20;;;1.10;;
24729;SDS011;12832;52.392;13.066;2023-05-10T00:45:33;1.23;;;1.13;;
24729;SDS011;12832;52.392;13.066;2023-05-10T00:48:01;1.15;;;1.05;;
24729;SDS011;12832;52.392;13.066;2023-05-10T00:50:29;1.08;;;0.98;;
24729;SDS011;12832;52.392;13.066;2023-05-10T00:52:57;1.13;;;1.02;;
24729;SDS011;12832;52.392;13.066;2023-05-10T00:55:25;1.23;;;1.13;;
24729;SDS011;12832;52.392;13.066;2023-05-10T00:57:52;1.30;;;1.20;;
24729;SDS011;12832;52.392;13.066;2023-05-10T01:00:19;1.27;;;1.17;;
24729;SDS011;12832;52.392;13.066;2023-05-10T01:02:45;1.27;;;1.17;;
24729;SDS011;12832;52.392;13.066;2023-05-10T01:05:12;1.15;;;1.10;;
24729;SDS011;12832;52.392;13.066;2023-05-10T01:07:39;1.20;;;1.10;;
24729;SDS011;12832;52.392;13.066;2023-05-10T01:10:06;1.10;;;1.00;;
24729;SDS011;12832;52.392;13.066;2023-05-10T01:12:33;1.45;;;1.00;;
24729;SDS011;12832;52.392;13.066;2023-05-10T01:15:02;1.23;;;1.13;;
24729;SDS011;12832;52.392;13.066;2023-05-10T01:17:29;1.20;;;1.10;;
24729;SDS011;12832;52.392;13.066;2023-05-10T01:19:56;1.83;;;1.10;;
24729;SDS011;12832;52.392;13.066;2023-05-10T01:31:03;1.20;;;1.10;;
24729;SDS011;12832;52.392;13.066;2023-05-10T01:33:55;1.33;;;1.23;;
24729;SDS011;12832;52.392;13.066;2023-05-10T01:39:16;1.10;;;1.00;;
24729;SDS011;12832;52.392;13.066;2023-05-10T01:41:58;1.20;;;1.10;;
24729;SDS011;12832;52.392;13.066;2023-05-10T01:47:44;1.20;;;1.10;;
24729;SDS011;12832;52.392;13.066;2023-05-10T01:50:19;1.00;;;0.90;;
24729;SDS011;12832;52.392;13.066;2023-05-10T01:52:51;1.20;;;1.10;;
24729;SDS011;12832;52.392;13.066;2023-05-10T01:55:20;1.17;;;1.08;;
24729;SDS011;12832;52.392;13.066;2023-05-10T01:57:50;1.30;;;1.20;;
24729;SDS011;12832;52.392;13.066;2023-05-10T02:00:21;1.40;;;1.30;;
24729;SDS011;12832;52.392;13.066;2023-05-10T02:02:49;1.30;;;1.20;;
24729;SDS011;12832;52.392;13.066;2023-05-10T02:05:16;1.20;;;1.10;;
24729;SDS011;12832;52.392;13.066;2023-05-10T02:07:44;1.20;;;1.10;;
24729;SDS011;12832;52.392;13.066;2023-05-10T02:10:11;0.88;;;0.88;;
24729;SDS011;12832;52.392;13.066;2023-05-10T02:12:41;1.63;;;1.30;;
24729;SDS011;12832;52.392;13.066;2023-05-10T02:15:10;1.27;;;1.17;;
24729;SDS011;12832;52.392;13.066;2023-05-10T02:17:38;1.17;;;1.00;;
24729;SDS011;12832;52.392;13.066;2023-05-10T02:20:06;1.30;;;1.20;;
24729;SDS011;12832;52.392;13.066;2023-05-10T02:22:33;1.10;;;1.10;;
24729;SDS011;12832;52.392;13.066;2023-05-10T02:25:01;1.10;;;1.00;;
24729;SDS011;12832;52.392;13.066;2023-05-10T02:27:29;0.90;;;0.90;;
24729;SDS011;12832;52.392;13.066;2023-05-10T02:29:56;1.33;;;1.23;;
24729;SDS011;12832;52.392;13.066;2023-05-10T02:32:24;1.23;;;1.13;;
24729;SDS011;12832;52.392;13.066;2023-05-10T02:34:51;1.20;;;1.10;;
24729;SDS011;12832;52.392;13.066;2023-05-10T02:37:19;1.27;;;1.17;;
24729;SDS011;12832;52.392;13.066;2023-05-10T02:39:47;1.00;;;0.90;;
24729;SDS011;12832;52.392;13.066;2023-05-10T02:42:16;1.02;;;1.00;;
24729;SDS011;12832;52.392;13.066;2023-05-10T02:44:45;1.25;;;1.17;;
24729;SDS011;12832;52.392;13.066;2023-05-10T02:47:14;1.02;;;1.00;;
24729;SDS011;12832;52.392;13.066;2023-05-10T02:49:40;1.40;;;1.30;;
24729;SDS011;12832;52.392;13.066;2023-05-10T02:52:06;1.02;;;1.00;;
24729;SDS011;12832;52.392;13.066;2023-05-10T02:54:39;1.10;;;1.00;;
24729;SDS011;12832;52.392;13.066;2023-05-10T02:57:09;0.90;;;0.90;;
24729;SDS011;12832;52.392;13.066;2023-05-10T02:59:40;0.90;;;0.90;;
24729;SDS011;12832;52.392;13.066;2023-05-10T03:02:08;0.90;;;0.90;;
24729;SDS011;12832;52.392;13.066;2023-05-10T03:04:36;1.50;;;0.95;;
24729;SDS011;12832;52.392;13.066;2023-05-10T03:07:02;1.33;;;1.23;;
24729;SDS011;12832;52.392;13.066;2023-05-10T03:09:28;1.13;;;1.02;;
24729;SDS011;12832;52.392;13.066;2023-05-10T03:20:06;1.15;;;1.05;;
24729;SDS011;12832;52.392;13.066;2023-05-10T03:22:40;0.90;;;0.90;;
24729;SDS011;12832;52.392;13.066;2023-05-10T03:25:16;0.90;;;0.90;;
24729;SDS011;12832;52.392;13.066;2023-05-10T03:27:46;1.20;;;0.88;;
24729;SDS011;12832;52.392;13.066;2023-05-10T03:30:14;1.20;;;1.17;;
24729;SDS011;12832;52.392;13.066;2023-05-10T03:32:41;1.10;;;1.00;;
24729;SDS011;12832;52.392;13.066;2023-05-10T03:35:08;1.10;;;1.02;;
24729;SDS011;12832;52.392;13.066;2023-05-10T03:37:34;0.93;;;0.93;;
24729;SDS011;12832;52.392;13.066;2023-05-10T03:40:01;0.90;;;0.90;;
24729;SDS011;12832;52.392;13.066;2023-05-10T03:42:28;1.13;;;1.02;;
24729;SDS011;12832;52.392;13.066;2023-05-10T03:44:54;1.20;;;1.10;;
24729;SDS011;12832;52.392;13.066;2023-05-10T03:47:21;1.05;;;1.00;;
24729;SDS011;12832;52.392;13.066;2023-05-10T03:49:47;1.00;;;1.00;;
24729;SDS011;12832;52.392;13.066;2023-05-10T03:52:13;1.00;;;1.00;;
24729;SDS011;12832;52.392;13.066;2023-05-10T03:54:39;0.90;;;0.90;;
24729;SDS011;12832;52.392;13.066;2023-05-10T03:57:05;1.10;;;1.00;;
24729;SDS011;12832;52.392;13.066;2023-05-10T03:59:32;1.00;;;0.93;;
24729;SDS011;12832;52.392;13.066;2023-05-10T04:01:58;1.13;;;1.02;;
24729;SDS011;12832;52.392;13.066;2023-05-10T04:04:24;1.00;;;1.00;;
24729;SDS011;12832;52.392;13.066;2023-05-10T04:06:50;1.00;;;0.90;;
24729;SDS011;12832;52.392;13.066;2023-05-10T04:09:16;1.17;;;1.10;;
24729;SDS011;12832;52.392;13.066;2023-05-10T04:11:43;1.20;;;1.10;;
24729;SDS011;12832;52.392;13.066;2023-05-10T04:14:09;1.10;;;1.00;;
24729;SDS011;12832;52.392;13.066;2023-05-10T04:16:35;1.00;;;1.00;;
24729;SDS011;12832;52.392;13.066;2023-05-10T04:19:01;0.90;;;0.90;;
24729;SDS011;12832;52.392;13.066;2023-05-10T04:21:28;0.90;;;0.90;;
24729;SDS011;12832;52.392;13.066;2023-05-10T04:23:54;1.05;;;0.95;;
24729;SDS011;12832;52.392;13.066;2023-05-10T04:26:20;0.88;;;0.88;;
24729;SDS011;12832;52.392;13.066;2023-05-10T04:28:47;1.15;;;1.05;;
24729;SDS011;12832;52.392;13.066;2023-05-10T04:31:13;1.00;;;1.00;;
24729;SDS011;12832;52.392;13.066;2023-05-10T04:33:40;0.93;;;0.93;;
24729;SDS011;12832;52.392;13.066;2023-05-10T04:36:06;0.80;;;0.80;;
24729;SDS011;12832;52.392;13.066;2023-05-10T04:38:32;1.15;;;1.05;;
24729;SDS011;12832;52.392;13.066;2023-05-10T04:41:05;0.90;;;0.90;;
24729;SDS011;12832;52.392;13.066;2023-05-10T04:43:33;0.85;;;0.85;;
24729;SDS011;12832;52.392;13.066;2023-05-10T04:45:59;0.80;;;0.80;;
24729;SDS011;12832;52.392;13.066;2023-05-10T04:48:26;0.90;;;0.90;;
24729;SDS011;12832;52.392;13.066;2023-05-10T04:50:52;0.80;;;0.80;;
24729;SDS011;12832;52.392;13.066;2023-05-10T04:53:18;1.10;;;0.98;;
24729;SDS011;12832;52.392;13.066;2023-05-10T04:55:44;0.80;;;0.80;;
24729;SDS011;12832;52.392;13.066;2023-05-10T04:58:11;0.85;;;0.85;;
24729;SDS011;12832;52.392;13.066;2023-05-10T05:00:38;1.20;;;1.10;;
24729;SDS011;12832;52.392;13.066;2023-05-10T05:03:04;1.20;;;1.10;;
24729;SDS011;12832;52.392;13.066;2023-05-10T05:05:30;1.00;;;0.93;;
24729;SDS011;12832;52.392;13.066;2023-05-10T05:07:57;0.65;;;0.65;;
24729;SDS011;12832;52.392;13.066;2023-05-10T05:10:23;0.65;;;0.65;;
24729;SDS011;12832;52.392;13.066;2023-05-10T05:12:49;0.90;;;0.90;;
24729;SDS011;12832;52.392;13.066;2023-05-10T05:15:16;0.80;;;0.80;;
24729;SDS011;12832;52.392;13.066;2023-05-10T05:17:42;0.80;;;0.80;;
24729;SDS011;12832;52.392;13.066;2023-05-10T05:20:09;0.90;;;0.90;;
24729;SDS011;12832;52.392;13.066;2023-05-10T05:22:36;3.08;;;1.10;;
24729;SDS011;12832;52.392;13.066;2023-05-10T05:25:03;2.63;;;1.13;;
24729;SDS011;12832;52.392;13.066;2023-05-10T05:27:29;1.35;;;1.10;;
24729;SDS011;12832;52.392;13.066;2023-05-10T05:29:57;1.20;;;1.10;;
24729;SDS011;12832;52.392;13.066;2023-05-10T05:32:23;1.30;;;1.20;;
24729;SDS011;12832;52.392;13.066;2023-05-10T05:34:50;1.30;;;1.20;;
24729;SDS011;12832;52.392;13.066;2023-05-10T05:37:20;2.03;;;1.52;;
24729;SDS011;12832;52.392;13.066;2023-05-10T05:39:46;1.80;;;1.45;;
24729;SDS011;12832;52.392;13.066;2023-05-10T05:42:13;1.45;;;1.35;;
24729;SDS011;12832;52.392;13.066;2023-05-10T05:44:40;1.52;;;1.35;;
24729;SDS011;12832;52.392;13.066;2023-05-10T05:47:06;1.60;;;1.50;;
24729;SDS011;12832;52.392;13.066;2023-05-10T05:49:32;1.60;;;1.50;;
24729;SDS011;12832;52.392;13.066;2023-05-10T05:51:59;1.85;;;1.50;;
24729;SDS011;12832;52.392;13.066;2023-05-10T05:54:26;1.40;;;1.30;;
24729;SDS011;12832;52.392;13.066;2023-05-10T05:56:56;1.70;;;1.60;;
24729;SDS011;12832;52.392;13.066;2023-05-10T05:59:26;1.60;;;1.50;;
24729;SDS011;12832;52.392;13.066;2023-05-10T06:01:52;1.60;;;1.50;;
24729;SDS011;12832;52.392;13.066;2023-05-10T06:04:19;1.20;;;1.10;;
24729;SDS011;12832;52.392;13.066;2023-05-10T06:06:45;1.90;;;1.80;;
24729;SDS011;12832;52.392;13.066;2023-05-10T06:09:11;1.67;;;1.50;;
24729;SDS011;12832;52.392;13.066;2023-05-10T06:11:38;1.65;;;1.50;;
24729;SDS011;12832;52.392;13.066;2023-05-10T06:14:04;1.80;;;1.40;;
24729;SDS011;12832;52.392;13.066;2023-05-10T06:16:32;2.17;;;1.77;;
24729;SDS011;12832;52.392;13.066;2023-05-10T06:18:59;1.30;;;1.20;;
24729;SDS011;12832;52.392;13.066;2023-05-10T06:21:25;1.73;;;1.63;;
24729;SDS011;12832;52.392;13.066;2023-05-10T06:23:52;1.70;;;1.60;;
24729;SDS011;12832;52.392;13.066;2023-05-10T06:26:18;1.50;;;1.40;;
24729;SDS011;12832;52.392;13.066;2023-05-10T06:28:44;1.83;;;1.67;;
24729;SDS011;12832;52.392;13.066;2023-05-10T06:31:10;1.67;;;1.55;;
24729;SDS011;12832;52.392;13.066;2023-05-10T06:33:37;2.60;;;1.70;;
24729;SDS011;12832;52.392;13.066;2023-05-10T06:36:03;2.85;;;1.70;;
24729;SDS011;12832;52.392;13.066;2023-05-10T06:38:30;1.95;;;1.70;;
24729;SDS011;12832;52.392;13.066;2023-05-10T06:40:56;2.53;;;1.50;;
24729;SDS011;12832;52.392;13.066;2023-05-10T06:43:22;1.75;;;1.65;;
24729;SDS011;12832;52.392;13.066;2023-05-10T06:45:50;1.73;;;1.55;;
24729;SDS011;12832;52.392;13.066;2023-05-10T06:48:16;2.72;;;1.60;;
24729;SDS011;12832;52.392;13.066;2023-05-10T06:50:43;1.60;;;1.50;;
24729;SDS011;12832;52.392;13.066;2023-05-10T06:53:09;2.40;;;1.52;;
24729;SDS011;12832;52.392;13.066;2023-05-10T06:55:35;1.65;;;1.55;;
24729;SDS011;12832;52.392;13.066;2023-05-10T06:58:02;2.00;;;1.55;;
24729;SDS011;12832;52.392;13.066;2023-05-10T07:00:28;2.72;;;1.60;;
24729;SDS011;12832;52.392;13.066;2023-05-10T07:02:54;1.77;;;1.60;;
24729;SDS011;12832;52.392;13.066;2023-05-10T07:05:20;1.90;;;1.70;;
24729;SDS011;12832;52.392;13.066;2023-05-10T07:07:47;4.20;;;1.73;;
24729;SDS011;12832;52.392;13.066;2023-05-10T07:10:13;1.65;;;1.55;;
24729;SDS011;12832;52.392;13.066;2023-05-10T07:12:40;1.60;;;1.50;;
24729;SDS011;12832;52.392;13.066;2023-05-10T07:15:06;2.03;;;1.70;;
24729;SDS011;12832;52.392;13.066;2023-05-10T07:17:33;2.08;;;1.75;;
24729;SDS011;12832;52.392;13.066;2023-05-10T07:19:59;1.90;;;1.77;;
24729;SDS011;12832;52.392;13.066;2023-05-10T07:22:26;3.28;;;1.50;;
24729;SDS011;12832;52.392;13.066;2023-05-10T07:24:52;1.85;;;1.60;;
24729;SDS011;12832;52.392;13.066;2023-05-10T07:27:18;1.75;;;1.65;;
24729;SDS011;12832;52.392;13.066;2023-05-10T07:29:44;1.70;;;1.60;;
24729;SDS011;12832;52.392;13.066;2023-05-10T07:32:10;2.05;;;1.45;;
24729;SDS011;12832;52.392;13.066;2023-05-10T07:34:37;1.65;;;1.50;;
24729;SDS011;12832;52.392;13.066;2023-05-10T07:37:03;1.73;;;1.55;;
24729;SDS011;12832;52.392;13.066;2023-05-10T07:39:29;1.60;;;1.50;;
24729;SDS011;12832;52.392;13.066;2023-05-10T07:41:55;2.45;;;1.70;;
24729;SDS011;12832;52.392;13.066;2023-05-10T07:44:22;1.63;;;1.52;;
24729;SDS011;12832;52.392;13.066;2023-05-10T07:46:49;1.60;;;1.50;;
24729;SDS011;12832;52.392;13.066;2023-05-10T07:49:15;1.60;;;1.50;;
24729;SDS011;12832;52.392;13.066;2023-05-10T07:51:41;2.15;;;1.60;;
24729;SDS011;12832;52.392;13.066;2023-05-10T07:54:08;1.30;;;1.20;;
24729;SDS011;12832;52.392;13.066;2023-05-10T07:56:34;1.63;;;1.52;;
24729;SDS011;12832;52.392;13.066;2023-05-10T07:59:01;1.40;;;1.30;;
24729;SDS011;12832;52.392;13.066;2023-05-10T08:01:33;1.75;;;1.50;;
24729;SDS011;12832;52.392;13.066;2023-05-10T08:04:00;1.75;;;1.50;;
24729;SDS011;12832;52.392;13.066;2023-05-10T08:06:27;1.63;;;1.52;;
24729;SDS011;12832;52.392;13.066;2023-05-10T08:08:55;1.77;;;1.67;;
24729;SDS011;12832;52.392;13.066;2023-05-10T08:11:21;1.85;;;1.65;;
24729;SDS011;12832;52.392;13.066;2023-05-10T08:13:48;1.92;;;1.75;;
24729;SDS011;12832;52.392;13.066;2023-05-10T08:16:16;2.60;;;1.55;;
24729;SDS011;12832;52.392;13.066;2023-05-10T08:18:43;1.67;;;1.50;;
24729;SDS011;12832;52.392;13.066;2023-05-10T08:21:11;1.83;;;1.48;;
24729;SDS011;12832;52.392;13.066;2023-05-10T08:23:37;1.80;;;1.30;;
24729;SDS011;12832;52.392;13.066;2023-05-10T08:26:03;1.88;;;1.50;;
24729;SDS011;12832;52.392;13.066;2023-05-10T08:28:30;1.55;;;1.42;;
24729;SDS011;12832;52.392;13.066;2023-05-10T08:30:56;1.83;;;1.50;;
24729;SDS011;12832;52.392;13.066;2023-05-10T08:33:22;1.58;;;1.27;;
24729;SDS011;12832;52.392;13.066;2023-05-10T08:35:48;2.50;;;1.52;;
24729;SDS011;12832;52.392;13.066;2023-05-10T08:38:15;2.08;;;1.40;;
24729;SDS011;12832;52.392;13.066;2023-05-10T08:40:41;1.40;;;1.30;;
24729;SDS011;12832;52.392;13.066;2023-05-10T08:43:09;2.60;;;1.60;;
24729;SDS011;12832;52.392;13.066;2023-05-10T08:45:37;1.50;;;1.30;;
24729;SDS011;12832;52.392;13.066;2023-05-10T08:48:06;1.50;;;1.40;;
24729;SDS011;12832;52.392;13.066;2023-05-10T08:50:38;1.30;;;1.20;;
24729;SDS011;12832;52.392;13.066;2023-05-10T08:53:09;1.92;;;1.40;;
24729;SDS011;12832;52.392;13.066;2023-05-10T08:55:37;1.40;;;1.30;;
24729;SDS011;12832;52.392;13.066;2023-05-10T08:58:04;1.65;;;1.55;;
24729;SDS011;12832;52.392;13.066;2023-05-10T09:00:32;3.33;;;1.50;;
24729;SDS011;12832;52.392;13.066;2023-05-10T09:02:58;1.60;;;1.50;;
24729;SDS011;12832;52.392;13.066;2023-05-10T09:05:25;1.85;;;1.50;;
24729;SDS011;12832;52.392;13.066;2023-05-10T09:07:52;3.33;;;1.60;;
24729;SDS011;12832;52.392;13.066;2023-05-10T09:10:18;1.90;;;1.73;;
24729;SDS011;12832;52.392;13.066;2023-05-10T09:12:45;1.40;;;1.30;;
24729;SDS011;12832;52.392;13.066;2023-05-10T09:15:14;2.58;;;1.55;;
24729;SDS011;12832;52.392;13.066;2023-05-10T09:17:42;2.72;;;1.42;;
24729;SDS011;12832;52.392;13.066;2023-05-10T09:20:10;1.50;;;1.40;;
24729;SDS011;12832;52.392;13.066;2023-05-10T09:22:36;1.80;;;1.38;;
24729;SDS011;12832;52.392;13.066;2023-05-10T09:27:31;1.77;;;1.67;;
24729;SDS011;12832;52.392;13.066;2023-05-10T09:29:58;1.60;;;1.50;;
24729;SDS011;12832;52.392;13.066;2023-05-10T09:32:40;1.33;;;1.23;;
24729;SDS011;12832;52.392;13.066;2023-05-10T09:35:09;1.42;;;1.33;;
24729;SDS011;12832;52.392;13.066;2023-05-10T09:37:36;1.40;;;1.30;;
24729;SDS011;12832;52.392;13.066;2023-05-10T09:40:05;1.50;;;1.40;;
24729;SDS011;12832;52.392;13.066;2023-05-10T09:42:33;1.73;;;1.33;;
24729;SDS011;12832;52.392;13.066;2023-05-10T09:45:01;1.50;;;1.40;;
24729;SDS011;12832;52.392;13.066;2023-05-10T09:47:35;1.20;;;1.10;;
24729;SDS011;12832;52.392;13.066;2023-05-10T09:50:02;1.65;;;1.15;;
24729;SDS011;12832;52.392;13.066;2023-05-10T09:52:29;1.40;;;1.30;;
24729;SDS011;12832;52.392;13.066;2023-05-10T09:55:10;2.45;;;1.52;;
24729;SDS011;12832;52.392;13.066;2023-05-10T09:57:37;1.65;;;1.55;;
24729;SDS011;12832;52.392;13.066;2023-05-10T10:00:04;1.30;;;1.20;;
24729;SDS011;12832;52.392;13.066;2023-05-10T10:02:31;1.70;;;1.60;;
24729;SDS011;12832;52.392;13.066;2023-05-10T10:05:00;1.60;;;1.50;;
24729;SDS011;12832;52.392;13.066;2023-05-10T10:07:28;1.80;;;1.50;;
24729;SDS011;12832;52.392;13.066;2023-05-10T10:09:55;2.35;;;1.60;;
24729;SDS011;12832;52.392;13.066;2023-05-10T10:12:21;1.55;;;1.42;;
24729;SDS011;12832;52.392;13.066;2023-05-10T10:14:47;1.50;;;1.40;;
24729;SDS011;12832;52.392;13.066;2023-05-10T10:17:16;1.38;;;1.27;;
24729;SDS011;12832;52.392;13.066;2023-05-10T10:19:42;3.08;;;1.40;;
24729;SDS011;12832;52.392;13.066;2023-05-10T10:22:10;1.65;;;1.15;;
24729;SDS011;12832;52.392;13.066;2023-05-10T10:24:38;1.70;;;1.42;;
24729;SDS011;12832;52.392;13.066;2023-05-10T10:32:33;1.40;;;1.30;;
24729;SDS011;12832;52.392;13.066;2023-05-10T10:35:14;1.67;;;1.52;;
24729;SDS011;12832;52.392;13.066;2023-05-10T10:37:45;1.50;;;1.40;;
24729;SDS011;12832;52.392;13.066;2023-05-10T10:40:22;1.60;;;1.50;;
24729;SDS011;12832;52.392;13.066;2023-05-10T10:42:53;1.60;;;1.50;;
24729;SDS011;12832;52.392;13.066;2023-05-10T10:45:20;2.38;;;1.92;;
24729;SDS011;12832;52.392;13.066;2023-05-10T10:47:47;4.15;;;1.63;;
24729;SDS011;12832;52.392;13.066;2023-05-10T10:50:14;1.40;;;1.30;;
24729;SDS011;12832;52.392;13.066;2023-05-10T10:52:44;2.15;;;1.40;;
24729;SDS011;12832;52.392;13.066;2023-05-10T10:55:15;1.92;;;1.40;;
24729;SDS011;12832;52.392;13.066;2023-05-10T10:57:55;2.03;;;1.60;;
24729;SDS011;12832;52.392;13.066;2023-05-10T11:00:32;2.08;;;1.67;;
24729;SDS011;12832;52.392;13.066;2023-05-10T11:05:35;1.48;;;1.33;;
24729;SDS011;12832;52.392;13.066;2023-05-10T11:08:09;1.75;;;1.40;;
24729;SDS011;12832;52.392;13.066;2023-05-10T11:13:47;1.80;;;1.30;;
24729;SDS011;12832;52.392;13.066;2023-05-10T11:16:17;2.10;;;1.70;;
24729;SDS011;12832;52.392;13.066;2023-05-10T11:19:06;2.17;;;1.30;;
24729;SDS011;12832;52.392;13.066;2023-05-10T11:21:33;2.20;;;1.33;;
24729;SDS011;12832;52.392;13.066;2023-05-10T11:24:13;1.50;;;1.40;;
24729;SDS011;12832;52.392;13.066;2023-05-10T11:26:52;1.50;;;1.40;;
24729;SDS011;12832;52.392;13.066;2023-05-10T11:29:19;1.38;;;1.27;;
24729;SDS011;12832;52.392;13.066;2023-05-10T11:31:46;1.52;;;1.42;;
24729;SDS011;12832;52.392;13.066;2023-05-10T11:34:22;1.30;;;1.20;;
24729;SDS011;12832;52.392;13.066;2023-05-10T11:36:54;1.73;;;1.45;;
24729;SDS011;12832;52.392;13.066;2023-05-10T11:39:21;1.50;;;1.38;;
24729;SDS011;12832;52.392;13.066;2023-05-10T11:41:51;1.70;;;1.35;;
24729;SDS011;12832;52.392;13.066;2023-05-10T11:44:17;1.42;;;1.30;;
24729;SDS011;12832;52.392;13.066;2023-05-10T11:46:44;1.73;;;1.60;;
24729;SDS011;12832;52.392;13.066;2023-05-10T11:49:10;2.13;;;1.50;;
24729;SDS011;12832;52.392;13.066;2023-05-10T11:51:37;2.50;;;1.30;;
24729;SDS011;12832;52.392;13.066;2023-05-10T11:54:05;2.08;;;1.23;;
24729;SDS011;12832;52.392;13.066;2023-05-10T11:56:34;1.50;;;1.40;;
24729;SDS011;12832;52.392;13.066;2023-05-10T11:59:00;1.48;;;1.38;;
24729;SDS011;12832;52.392;13.066;2023-05-10T12:01:28;1.73;;;1.27;;
24729;SDS011;12832;52.392;13.066;2023-05-10T12:03:55;3.05;;;1.42;;
24729;SDS011;12832;52.392;13.066;2023-05-10T12:06:31;1.30;;;1.20;;
24729;SDS011;12832;52.392;13.066;2023-05-10T12:08:58;1.80;;;1.50;;
24729;SDS011;12832;52.392;13.066;2023-05-10T12:11:25;1.42;;;1.23;;
24729;SDS011;12832;52.392;13.066;2023-05-10T12:13:53;1.67;;;1.35;;
24729;SDS011;12832;52.392;13.066;2023-05-10T12:18:51;1.55;;;1.45;;
24729;SDS011;12832;52.392;13.066;2023-05-10T12:21:19;1.33;;;1.10;;
24729;SDS011;12832;52.392;13.066;2023-05-10T12:23:48;1.63;;;1.40;;
24729;SDS011;12832;52.392;13.066;2023-05-10T12:26:16;1.98;;;1.50;;
24729;SDS011;12832;52.392;13.066;2023-05-10T12:28:42;3.20;;;1.20;;
24729;SDS011;12832;52.392;13.066;2023-05-10T12:31:08;3.13;;;1.83;;
24729;SDS011;12832;52.392;13.066;2023-05-10T12:33:38;1.35;;;1.25;;
24729;SDS011;12832;52.392;13.066;2023-05-10T12:36:11;2.00;;;1.48;;
24729;SDS011;12832;52.392;13.066;2023-05-10T12:38:39;1.40;;;1.30;;
24729;SDS011;12832;52.392;13.066;2023-05-10T12:41:13;1.92;;;1.40;;
24729;SDS011;12832;52.392;13.066;2023-05-10T12:43:40;1.35;;;1.23;;
24729;SDS011;12832;52.392;13.066;2023-05-10T12:46:13;1.40;;;1.30;;
24729;SDS011;12832;52.392;13.066;2023-05-10T12:48:41;1.40;;;1.30;;
24729;SDS011;12832;52.392;13.066;2023-05-10T12:51:08;1.33;;;1.20;;
24729;SDS011;12832;52.392;13.066;2023-05-10T12:53:37;1.33;;;1.23;;
24729;SDS011;12832;52.392;13.066;2023-05-10T12:56:06;2.92;;;1.40;;
24729;SDS011;12832;52.392;13.066;2023-05-10T12:58:33;1.77;;;1.38;;
24729;SDS011;12832;52.392;13.066;2023-05-10T13:01:01;1.13;;;1.10;;
24729;SDS011;12832;52.392;13.066;2023-05-10T13:03:28;1.20;;;1.10;;
24729;SDS011;12832;52.392;13.066;2023-05-10T13:05:54;1.50;;;1.40;;
24729;SDS011;12832;52.392;13.066;2023-05-10T13:08:21;1.58;;;1.30;;
24729;SDS011;12832;52.392;13.066;2023-05-10T13:10:47;1.33;;;1.23;;
24729;SDS011;12832;52.392;13.066;2023-05-10T13:13:14;3.05;;;1.40;;
24729;SDS011;12832;52.392;13.066;2023-05-10T13:15:40;1.35;;;1.23;;
24729;SDS011;12832;52.392;13.066;2023-05-10T13:18:06;1.92;;;1.42;;
24729;SDS011;12832;52.392;13.066;2023-05-10T13:20:33;2.28;;;1.40;;
24729;SDS011;12832;52.392;13.066;2023-05-10T13:23:02;1.50;;;1.35;;
24729;SDS011;12832;52.392;13.066;2023-05-10T13:25:28;2.83;;;1.38;;
24729;SDS011;12832;52.392;13.066;2023-05-10T13:27:55;1.80;;;1.33;;
24729;SDS011;12832;52.392;13.066;2023-05-10T13:30:21;1.48;;;1.38;;
24729;SDS011;12832;52.392;13.066;2023-05-10T13:32:49;1.55;;;1.25;;
24729;SDS011;12832;52.392;13.066;2023-05-10T13:35:15;2.85;;;1.48;;
24729;SDS011;12832;52.392;13.066;2023-05-10T13:37:42;1.42;;;1.27;;
24729;SDS011;12832;52.392;13.066;2023-05-10T13:40:08;2.92;;;1.55;;
24729;SDS011;12832;52.392;13.066;2023-05-10T13:42:34;1.45;;;1.35;;
24729;SDS011;12832;52.392;13.066;2023-05-10T13:45:00;3.22;;;1.50;;
24729;SDS011;12832;52.392;13.066;2023-05-10T13:47:30;1.52;;;1.25;;
24729;SDS011;12832;52.392;13.066;2023-05-10T13:49:56;2.20;;;1.50;;
24729;SDS011;12832;52.392;13.066;2023-05-10T13:52:23;1.55;;;1.45;;
24729;SDS011;12832;52.392;13.066;2023-05-10T13:54:49;1.73;;;1.35;;
24729;SDS011;12832;52.392;13.066;2023-05-10T13:57:17;1.67;;;1.35;;
24729;SDS011;12832;52.392;13.066;2023-05-10T13:59:44;1.50;;;1.40;;
24729;SDS011;12832;52.392;13.066;2023-05-10T14:02:10;1.35;;;1.10;;
24729;SDS011;12832;52.392;13.066;2023-05-10T14:04:37;1.75;;;1.40;;
24729;SDS011;12832;52.392;13.066;2023-05-10T14:07:04;1.40;;;1.30;;
24729;SDS011;12832;52.392;13.066;2023-05-10T14:09:30;1.58;;;1.48;;
24729;SDS011;12832;52.392;13.066;2023-05-10T14:11:56;1.50;;;1.15;;
24729;SDS011;12832;52.392;13.066;2023-05-10T14:14:23;1.80;;;1.52;;
24729;SDS011;12832;52.392;13.066;2023-05-10T14:16:49;1.30;;;1.20;;
24729;SDS011;12832;52.392;13.066;2023-05-10T14:19:15;1.38;;;1.27;;
24729;SDS011;12832;52.392;13.066;2023-05-10T14:21:41;1.67;;;1.27;;
24729;SDS011;12832;52.392;13.066;2023-05-10T14:24:08;1.95;;;1.60;;
24729;SDS011;12832;52.392;13.066;2023-05-10T14:26:34;1.70;;;1.60;;
24729;SDS011;12832;52.392;13.066;2023-05-10T14:29:01;1.50;;;1.40;;
24729;SDS011;12832;52.392;13.066;2023-05-10T14:31:27;1.50;;;1.40;;
24729;SDS011;12832;52.392;13.066;2023-05-10T14:33:55;2.95;;;1.40;;
24729;SDS011;12832;52.392;13.066;2023-05-10T14:36:22;1.35;;;1.23;;
24729;SDS011;12832;52.392;13.066;2023-05-10T14:38:49;2.38;;;1.70;;
24729;SDS011;12832;52.392;13.066;2023-05-10T14:41:15;1.60;;;1.50;;
24729;SDS011;12832;52.392;13.066;2023-05-10T14:43:43;2.17;;;1.40;;
24729;SDS011;12832;52.392;13.066;2023-05-10T14:46:09;1.73;;;1.63;;
24729;SDS011;12832;52.392;13.066;2023-05-10T14:48:35;1.73;;;1.42;;
24729;SDS011;12832;52.392;13.066;2023-05-10T14:51:02;1.92;;;1.55;;
24729;SDS011;12832;52.392;13.066;2023-05-10T14:53:29;2.33;;;1.63;;
24729;SDS011;12832;52.392;13.066;2023-05-10T14:55:55;3.28;;;1.40;;
24729;SDS011;12832;52.392;13.066;2023-05-10T14:58:21;1.60;;;1.50;;
24729;SDS011;12832;52.392;13.066;2023-05-10T15:00:47;1.30;;;1.20;;
24729;SDS011;12832;52.392;13.066;2023-05-10T15:03:14;1.50;;;1.40;;
24729;SDS011;12832;52.392;13.066;2023-05-10T15:05:41;1.10;;;1.00;;
24729;SDS011;12832;52.392;13.066;2023-05-10T15:08:07;1.40;;;1.27;;
24729;SDS011;12832;52.392;13.066;2023-05-10T15:10:35;2.60;;;1.20;;
24729;SDS011;12832;52.392;13.066;2023-05-10T15:13:03;1.20;;;1.10;;
24729;SDS011;12832;52.392;13.066;2023-05-10T15:15:30;2.58;;;1.00;;